sensor_id;sensor_type;location;lat;lon;timestamp;P1;durP1;ratioP1;P2;durP2;ratioP2
53890;SDS011;41337;51.400;-2.342;2023-09-19T00:02:04;26.00;;;3.70;;
53890;SDS011;41337;51.400;-2.342;2023-09-19T00:07:25;27.83;;;3.88;;
53890;SDS011;41337;51.400;-2.342;2023-09-19T00:12:53;18.77;;;3.08;;
53890;SDS011;41337;51.400;-2.342;2023-09-19T00:17:56;21.80;;;3.75;;
53890;SDS011;41337;51.400;-2.342;2023-09-19T00:33:54;21.38;;;4.30;;
53890;SDS011;41337;51.400;-2.342;2023-09-19T00:39:07;18.08;;;3.30;;
53890;SDS011;41337;51.400;-2.342;2023-09-19T00:44:11;18.50;;;3.13;;
53890;SDS011;41337;51.400;-2.342;2023-09-19T00:49:12;17.50;;;3.50;;
53890;SDS011;41337;51.400;-2.342;2023-09-19T00:54:15;21.58;;;3.00;;
53890;SDS011;41337;51.400;-2.342;2023-09-19T00:59:29;15.68;;;3.67;;
53890;SDS011;41337;51.400;-2.342;2023-09-19T01:04:30;17.73;;;3.00;;
53890;SDS011;41337;51.400;-2.342;2023-09-19T01:15:01;21.42;;;2.97;;
53890;SDS011;41337;51.400;-2.342;2023-09-19T01:20:15;20.15;;;2.13;;
53890;SDS011;41337;51.400;-2.342;2023-09-19T01:36:44;17.10;;;2.55;;
53890;SDS011;41337;51.400;-2.342;2023-09-19T01:47:12;15.55;;;2.53;;
53890;SDS011;41337;51.400;-2.342;2023-09-19T01:53:03;14.55;;;2.65;;
53890;SDS011;41337;51.400;-2.342;2023-09-19T01:58:47;14.20;;;2.50;;
53890;SDS011;41337;51.400;-2.342;2023-09-19T02:03:51;20.00;;;2.53;;
53890;SDS011;41337;51.400;-2.342;2023-09-19T02:08:53;11.20;;;2.10;;
53890;SDS011;41337;51.400;-2.342;2023-09-19T02:13:55;17.15;;;2.65;;
53890;SDS011;41337;51.400;-2.342;2023-09-19T02:18:56;16.67;;;2.78;;
53890;SDS011;41337;51.400;-2.342;2023-09-19T02:24:00;13.57;;;2.60;;
53890;SDS011;41337;51.400;-2.342;2023-09-19T02:29:03;16.85;;;1.98;;
53890;SDS011;41337;51.400;-2.342;2023-09-19T02:34:30;15.85;;;2.60;;
53890;SDS011;41337;51.400;-2.342;2023-09-19T02:44:57;14.57;;;2.35;;
53890;SDS011;41337;51.400;-2.342;2023-09-19T02:50:08;13.57;;;1.80;;
53890;SDS011;41337;51.400;-2.342;2023-09-19T02:55:48;24.20;;;3.08;;
53890;SDS011;41337;51.400;-2.342;2023-09-19T03:00:49;11.57;;;2.13;;
53890;SDS011;41337;51.400;-2.342;2023-09-19T03:11:48;16.35;;;2.35;;
53890;SDS011;41337;51.400;-2.342;2023-09-19T03:16:49;18.60;;;2.63;;
53890;SDS011;41337;51.400;-2.342;2023-09-19T03:21:52;11.38;;;1.90;;
53890;SDS011;41337;51.400;-2.342;2023-09-19T03:31:59;12.40;;;1.67;;
53890;SDS011;41337;51.400;-2.342;2023-09-19T03:42:04;13.20;;;1.88;;
53890;SDS011;41337;51.400;-2.342;2023-09-19T03:47:05;11.32;;;1.98;;
53890;SDS011;41337;51.400;-2.342;2023-09-19T03:52:07;7.70;;;1.60;;
53890;SDS011;41337;51.400;-2.342;2023-09-19T03:57:12;10.35;;;1.60;;
53890;SDS011;41337;51.400;-2.342;2023-09-19T04:02:22;10.30;;;1.33;;
53890;SDS011;41337;51.400;-2.342;2023-09-19T04:07:29;6.32;;;1.73;;
53890;SDS011;41337;51.400;-2.342;2023-09-19T04:12:33;12.20;;;1.45;;
53890;SDS011;41337;51.400;-2.342;2023-09-19T04:17:34;10.75;;;1.73;;
53890;SDS011;41337;51.400;-2.342;2023-09-19T04:22:38;7.20;;;1.17;;
53890;SDS011;41337;51.400;-2.342;2023-09-19T04:27:41;7.45;;;1.08;;
53890;SDS011;41337;51.400;-2.342;2023-09-19T04:32:42;7.03;;;1.70;;
53890;SDS011;41337;51.400;-2.342;2023-09-19T04:37:42;4.47;;;0.80;;
53890;SDS011;41337;51.400;-2.342;2023-09-19T04:42:43;6.07;;;0.88;;
53890;SDS011;41337;51.400;-2.342;2023-09-19T04:52:49;3.60;;;0.80;;
53890;SDS011;41337;51.400;-2.342;2023-09-19T04:57:54;5.25;;;0.77;;
53890;SDS011;41337;51.400;-2.342;2023-09-19T05:02:55;7.47;;;1.25;;
53890;SDS011;41337;51.400;-2.342;2023-09-19T05:07:57;8.25;;;0.90;;
53890;SDS011;41337;51.400;-2.342;2023-09-19T05:12:59;5.25;;;0.80;;
53890;SDS011;41337;51.400;-2.342;2023-09-19T05:23:28;6.38;;;0.98;;
53890;SDS011;41337;51.400;-2.342;2023-09-19T05:28:29;6.00;;;0.95;;
53890;SDS011;41337;51.400;-2.342;2023-09-19T05:33:30;5.43;;;1.55;;
53890;SDS011;41337;51.400;-2.342;2023-09-19T05:38:35;6.22;;;1.38;;
53890;SDS011;41337;51.400;-2.342;2023-09-19T05:43:38;7.10;;;0.93;;
53890;SDS011;41337;51.400;-2.342;2023-09-19T05:48:38;6.70;;;1.33;;
53890;SDS011;41337;51.400;-2.342;2023-09-19T05:53:42;5.38;;;1.30;;
53890;SDS011;41337;51.400;-2.342;2023-09-19T05:58:43;5.88;;;1.80;;
53890;SDS011;41337;51.400;-2.342;2023-09-19T06:03:44;6.13;;;1.80;;
53890;SDS011;41337;51.400;-2.342;2023-09-19T06:08:45;13.90;;;1.83;;
53890;SDS011;41337;51.400;-2.342;2023-09-19T06:13:46;13.50;;;2.05;;
53890;SDS011;41337;51.400;-2.342;2023-09-19T06:18:47;11.13;;;1.60;;
53890;SDS011;41337;51.400;-2.342;2023-09-19T06:23:53;11.10;;;2.53;;
53890;SDS011;41337;51.400;-2.342;2023-09-19T06:34:25;8.70;;;1.90;;
53890;SDS011;41337;51.400;-2.342;2023-09-19T06:39:26;8.80;;;1.92;;
53890;SDS011;41337;51.400;-2.342;2023-09-19T06:44:31;6.60;;;1.70;;
53890;SDS011;41337;51.400;-2.342;2023-09-19T06:49:33;10.60;;;3.22;;
53890;SDS011;41337;51.400;-2.342;2023-09-19T07:05:11;9.85;;;2.40;;
53890;SDS011;41337;51.400;-2.342;2023-09-19T07:10:12;11.05;;;2.95;;
53890;SDS011;41337;51.400;-2.342;2023-09-19T07:15:31;13.30;;;3.25;;
53890;SDS011;41337;51.400;-2.342;2023-09-19T07:21:02;13.50;;;3.28;;
53890;SDS011;41337;51.400;-2.342;2023-09-19T07:26:05;16.38;;;3.03;;
53890;SDS011;41337;51.400;-2.342;2023-09-19T07:31:06;15.13;;;4.38;;
53890;SDS011;41337;51.400;-2.342;2023-09-19T07:36:10;16.70;;;3.95;;
53890;SDS011;41337;51.400;-2.342;2023-09-19T07:47:02;14.87;;;3.93;;
53890;SDS011;41337;51.400;-2.342;2023-09-19T07:52:25;17.20;;;4.07;;
53890;SDS011;41337;51.400;-2.342;2023-09-19T07:57:31;14.50;;;3.83;;
53890;SDS011;41337;51.400;-2.342;2023-09-19T08:02:35;15.98;;;4.43;;
53890;SDS011;41337;51.400;-2.342;2023-09-19T08:08:10;18.35;;;4.40;;
53890;SDS011;41337;51.400;-2.342;2023-09-19T08:18:30;22.35;;;4.18;;
53890;SDS011;41337;51.400;-2.342;2023-09-19T08:23:32;21.08;;;5.65;;
53890;SDS011;41337;51.400;-2.342;2023-09-19T08:33:40;20.67;;;4.35;;
53890;SDS011;41337;51.400;-2.342;2023-09-19T08:38:41;14.18;;;4.78;;
53890;SDS011;41337;51.400;-2.342;2023-09-19T08:43:47;20.35;;;5.00;;
53890;SDS011;41337;51.400;-2.342;2023-09-19T08:49:03;20.83;;;4.50;;
53890;SDS011;41337;51.400;-2.342;2023-09-19T08:54:07;19.60;;;4.40;;
53890;SDS011;41337;51.400;-2.342;2023-09-19T09:09:59;19.88;;;5.40;;
53890;SDS011;41337;51.400;-2.342;2023-09-19T09:20:17;15.20;;;4.18;;
53890;SDS011;41337;51.400;-2.342;2023-09-19T09:30:34;17.17;;;3.78;;
53890;SDS011;41337;51.400;-2.342;2023-09-19T09:35:46;19.55;;;3.97;;
53890;SDS011;41337;51.400;-2.342;2023-09-19T09:40:59;16.02;;;3.58;;
53890;SDS011;41337;51.400;-2.342;2023-09-19T09:57:03;8.63;;;2.83;;
53890;SDS011;41337;51.400;-2.342;2023-09-19T10:02:15;11.10;;;2.63;;
53890;SDS011;41337;51.400;-2.342;2023-09-19T10:18:22;9.05;;;2.50;;
53890;SDS011;41337;51.400;-2.342;2023-09-19T10:24:00;5.35;;;1.95;;
53890;SDS011;41337;51.400;-2.342;2023-09-19T10:29:06;7.55;;;2.47;;
53890;SDS011;41337;51.400;-2.342;2023-09-19T10:34:21;6.60;;;1.98;;
53890;SDS011;41337;51.400;-2.342;2023-09-19T10:39:23;11.70;;;2.70;;
53890;SDS011;41337;51.400;-2.342;2023-09-19T10:44:27;6.85;;;2.20;;
53890;SDS011;41337;51.400;-2.342;2023-09-19T10:49:30;8.88;;;1.92;;
53890;SDS011;41337;51.400;-2.342;2023-09-19T10:54:33;5.03;;;1.70;;
53890;SDS011;41337;51.400;-2.342;2023-09-19T11:05:21;7.57;;;1.42;;
53890;SDS011;41337;51.400;-2.342;2023-09-19T11:21:55;1.45;;;1.00;;
53890;SDS011;41337;51.400;-2.342;2023-09-19T11:33:20;1.98;;;0.82;;
53890;SDS011;41337;51.400;-2.342;2023-09-19T11:49:31;0.98;;;0.60;;
53890;SDS011;41337;51.400;-2.342;2023-09-19T11:54:33;2.45;;;0.70;;
53890;SDS011;41337;51.400;-2.342;2023-09-19T11:59:38;3.63;;;0.80;;
53890;SDS011;41337;51.400;-2.342;2023-09-19T12:09:48;4.10;;;0.90;;
53890;SDS011;41337;51.400;-2.342;2023-09-19T12:14:51;1.98;;;0.60;;
53890;SDS011;41337;51.400;-2.342;2023-09-19T12:19:57;2.42;;;0.90;;
53890;SDS011;41337;51.400;-2.342;2023-09-19T12:25:05;3.05;;;1.02;;
53890;SDS011;41337;51.400;-2.342;2023-09-19T12:30:17;1.95;;;0.77;;
53890;SDS011;41337;51.400;-2.342;2023-09-19T12:35:27;1.35;;;0.60;;
53890;SDS011;41337;51.400;-2.342;2023-09-19T12:40:35;4.63;;;0.88;;
53890;SDS011;41337;51.400;-2.342;2023-09-19T12:51:36;2.35;;;0.70;;
53890;SDS011;41337;51.400;-2.342;2023-09-19T13:01:46;1.13;;;0.50;;
53890;SDS011;41337;51.400;-2.342;2023-09-19T13:17:53;1.02;;;0.40;;
53890;SDS011;41337;51.400;-2.342;2023-09-19T13:28:38;5.82;;;0.73;;
53890;SDS011;41337;51.400;-2.342;2023-09-19T13:39:31;1.60;;;0.70;;
53890;SDS011;41337;51.400;-2.342;2023-09-19T13:51:16;3.30;;;0.90;;
53890;SDS011;41337;51.400;-2.342;2023-09-19T13:56:23;6.97;;;1.15;;
53890;SDS011;41337;51.400;-2.342;2023-09-19T14:01:29;6.18;;;1.55;;
53890;SDS011;41337;51.400;-2.342;2023-09-19T14:43:46;8.43;;;2.03;;
53890;SDS011;41337;51.400;-2.342;2023-09-19T14:48:53;6.28;;;1.35;;
53890;SDS011;41337;51.400;-2.342;2023-09-19T14:53:57;3.63;;;0.73;;
53890;SDS011;41337;51.400;-2.342;2023-09-19T14:59:34;2.33;;;0.70;;
53890;SDS011;41337;51.400;-2.342;2023-09-19T15:05:20;2.75;;;1.27;;
53890;SDS011;41337;51.400;-2.342;2023-09-19T15:10:27;2.67;;;0.63;;
53890;SDS011;41337;51.400;-2.342;2023-09-19T15:15:52;3.25;;;0.68;;
53890;SDS011;41337;51.400;-2.342;2023-09-19T15:20:53;2.05;;;0.50;;
53890;SDS011;41337;51.400;-2.342;2023-09-19T15:26:31;4.85;;;0.80;;
53890;SDS011;41337;51.400;-2.342;2023-09-19T15:31:33;1.55;;;0.50;;
53890;SDS011;41337;51.400;-2.342;2023-09-19T15:36:38;1.33;;;0.40;;
53890;SDS011;41337;51.400;-2.342;2023-09-19T15:46:43;2.35;;;0.70;;
53890;SDS011;41337;51.400;-2.342;2023-09-19T15:51:44;1.45;;;0.60;;
53890;SDS011;41337;51.400;-2.342;2023-09-19T15:56:46;1.80;;;0.40;;
53890;SDS011;41337;51.400;-2.342;2023-09-19T16:01:48;2.55;;;0.50;;
53890;SDS011;41337;51.400;-2.342;2023-09-19T16:06:50;2.17;;;0.50;;
53890;SDS011;41337;51.400;-2.342;2023-09-19T16:11:52;2.88;;;0.50;;
53890;SDS011;41337;51.400;-2.342;2023-09-19T16:17:05;3.63;;;0.68;;
53890;SDS011;41337;51.400;-2.342;2023-09-19T16:22:08;1.67;;;0.70;;
53890;SDS011;41337;51.400;-2.342;2023-09-19T16:27:09;2.47;;;0.50;;
53890;SDS011;41337;51.400;-2.342;2023-09-19T16:32:10;1.75;;;0.45;;
53890;SDS011;41337;51.400;-2.342;2023-09-19T16:42:13;2.33;;;0.50;;
53890;SDS011;41337;51.400;-2.342;2023-09-19T16:47:16;2.03;;;0.70;;
53890;SDS011;41337;51.400;-2.342;2023-09-19T16:52:17;2.35;;;0.60;;
53890;SDS011;41337;51.400;-2.342;2023-09-19T16:57:18;3.70;;;0.82;;
53890;SDS011;41337;51.400;-2.342;2023-09-19T17:02:19;2.17;;;0.82;;
53890;SDS011;41337;51.400;-2.342;2023-09-19T17:07:20;2.67;;;0.43;;
53890;SDS011;41337;51.400;-2.342;2023-09-19T17:12:21;7.80;;;1.25;;
53890;SDS011;41337;51.400;-2.342;2023-09-19T17:22:48;2.15;;;1.00;;
53890;SDS011;41337;51.400;-2.342;2023-09-19T17:27:51;2.28;;;0.95;;
53890;SDS011;41337;51.400;-2.342;2023-09-19T17:32:52;6.00;;;1.20;;
53890;SDS011;41337;51.400;-2.342;2023-09-19T17:37:53;5.32;;;1.00;;
53890;SDS011;41337;51.400;-2.342;2023-09-19T17:42:54;6.05;;;1.23;;
53890;SDS011;41337;51.400;-2.342;2023-09-19T17:47:56;5.63;;;1.75;;
53890;SDS011;41337;51.400;-2.342;2023-09-19T17:52:57;5.03;;;1.00;;
53890;SDS011;41337;51.400;-2.342;2023-09-19T17:57:59;3.67;;;1.00;;
53890;SDS011;41337;51.400;-2.342;2023-09-19T18:03:29;4.65;;;0.90;;
53890;SDS011;41337;51.400;-2.342;2023-09-19T18:08:35;3.70;;;1.00;;
53890;SDS011;41337;51.400;-2.342;2023-09-19T18:24:51;3.08;;;1.52;;
53890;SDS011;41337;51.400;-2.342;2023-09-19T18:34:59;1.83;;;1.00;;
53890;SDS011;41337;51.400;-2.342;2023-09-19T18:40:01;6.93;;;1.40;;
53890;SDS011;41337;51.400;-2.342;2023-09-19T18:50:18;4.75;;;1.85;;
53890;SDS011;41337;51.400;-2.342;2023-09-19T18:56:01;5.40;;;2.47;;
53890;SDS011;41337;51.400;-2.342;2023-09-19T19:01:14;6.57;;;1.85;;
53890;SDS011;41337;51.400;-2.342;2023-09-19T19:11:42;6.30;;;1.88;;
53890;SDS011;41337;51.400;-2.342;2023-09-19T19:16:53;3.05;;;1.65;;
53890;SDS011;41337;51.400;-2.342;2023-09-19T19:27:45;5.22;;;1.40;;
53890;SDS011;41337;51.400;-2.342;2023-09-19T19:32:47;4.32;;;1.30;;
53890;SDS011;41337;51.400;-2.342;2023-09-19T19:47:57;3.40;;;1.65;;
53890;SDS011;41337;51.400;-2.342;2023-09-19T19:52:58;5.65;;;1.40;;
53890;SDS011;41337;51.400;-2.342;2023-09-19T19:57:59;4.72;;;1.60;;
53890;SDS011;41337;51.400;-2.342;2023-09-19T20:03:00;5.38;;;1.48;;
53890;SDS011;41337;51.400;-2.342;2023-09-19T20:19:12;4.30;;;1.25;;
53890;SDS011;41337;51.400;-2.342;2023-09-19T20:30:27;1.30;;;0.55;;
53890;SDS011;41337;51.400;-2.342;2023-09-19T20:35:36;1.92;;;0.68;;
53890;SDS011;41337;51.400;-2.342;2023-09-19T20:46:17;1.58;;;1.10;;
53890;SDS011;41337;51.400;-2.342;2023-09-19T21:02:45;6.53;;;1.30;;
53890;SDS011;41337;51.400;-2.342;2023-09-19T21:07:48;6.95;;;1.35;;
53890;SDS011;41337;51.400;-2.342;2023-09-19T21:12:53;4.60;;;1.50;;
53890;SDS011;41337;51.400;-2.342;2023-09-19T21:18:52;6.10;;;1.88;;
53890;SDS011;41337;51.400;-2.342;2023-09-19T21:24:52;7.88;;;2.00;;
53890;SDS011;41337;51.400;-2.342;2023-09-19T21:36:31;7.35;;;1.80;;
53890;SDS011;41337;51.400;-2.342;2023-09-19T21:48:17;5.78;;;1.75;;
53890;SDS011;41337;51.400;-2.342;2023-09-19T21:54:07;5.35;;;1.70;;
53890;SDS011;41337;51.400;-2.342;2023-09-19T22:06:08;11.50;;;3.15;;
53890;SDS011;41337;51.400;-2.342;2023-09-19T22:18:08;7.82;;;1.95;;
53890;SDS011;41337;51.400;-2.342;2023-09-19T22:24:04;14.55;;;2.03;;
53890;SDS011;41337;51.400;-2.342;2023-09-19T22:29:58;6.10;;;2.30;;
53890;SDS011;41337;51.400;-2.342;2023-09-19T22:35:47;7.90;;;1.77;;
53890;SDS011;41337;51.400;-2.342;2023-09-19T22:41:45;9.13;;;1.85;;
53890;SDS011;41337;51.400;-2.342;2023-09-19T22:53:21;13.35;;;2.50;;
53890;SDS011;41337;51.400;-2.342;2023-09-19T22:59:10;6.35;;;2.05;;
53890;SDS011;41337;51.400;-2.342;2023-09-19T23:04:59;8.30;;;2.17;;
53890;SDS011;41337;51.400;-2.342;2023-09-19T23:11:04;5.65;;;1.75;;
53890;SDS011;41337;51.400;-2.342;2023-09-19T23:28:31;9.73;;;1.98;;
53890;SDS011;41337;51.400;-2.342;2023-09-19T23:34:20;7.20;;;2.08;;
53890;SDS011;41337;51.400;-2.342;2023-09-19T23:40:08;8.40;;;2.65;;
53890;SDS011;41337;51.400;-2.342;2023-09-19T23:57:28;8.50;;;2.25;;
